createdAt,value
2022-08-26T00:02:08.362Z,63.62
2022-08-26T00:05:15.290Z,63.64
2022-08-26T00:08:22.562Z,63.61
2022-08-26T00:11:29.159Z,63.55
2022-08-26T00:14:35.419Z,64.24
2022-08-26T00:17:42.063Z,64.12
2022-08-26T00:20:48.511Z,64.07
2022-08-26T00:23:55.164Z,64.39
2022-08-26T00:27:01.429Z,64.22
2022-08-26T00:30:11.071Z,63.86
2022-08-26T00:33:17.584Z,63.85
2022-08-26T00:36:24.898Z,63.74
2022-08-26T00:39:35.836Z,63.71
2022-08-26T00:42:46.076Z,64.19
2022-08-26T00:45:56.851Z,64.39
2022-08-26T00:49:11.842Z,64.50
2022-08-26T00:52:21.194Z,65.07
2022-08-26T00:55:38.054Z,64.90
2022-08-26T00:58:45.504Z,64.50
2022-08-26T01:01:52.129Z,64.35
2022-08-26T01:05:01.329Z,64.20
2022-08-26T01:08:09.883Z,63.70
2022-08-26T01:11:16.925Z,63.69
2022-08-26T01:14:26.405Z,63.65
2022-08-26T01:17:33.844Z,63.66
2022-08-26T01:20:48.785Z,63.29
2022-08-26T01:23:57.467Z,63.22
2022-08-26T01:27:06.829Z,63.48
2022-08-26T01:30:15.486Z,63.70
2022-08-26T01:33:25.600Z,63.66
2022-08-26T01:36:32.161Z,64.21
2022-08-26T01:39:40.244Z,64.58
2022-08-26T01:42:49.289Z,64.29
2022-08-26T01:45:57.149Z,64.35
2022-08-26T01:49:07.837Z,64.36
2022-08-26T01:52:17.857Z,64.06
2022-08-26T01:55:33.176Z,64.08
2022-08-26T01:58:41.292Z,64.36
2022-08-26T02:01:47.876Z,64.35
2022-08-26T02:04:59.682Z,64.36
2022-08-26T02:08:06.586Z,64.15
2022-08-26T02:11:13.561Z,64.18
2022-08-26T02:14:24.111Z,64.14
2022-08-26T02:17:38.737Z,64.39
2022-08-26T02:20:45.102Z,64.83
2022-08-26T02:23:52.169Z,65.38
2022-08-26T02:26:59.426Z,65.66
2022-08-26T02:30:10.371Z,65.48
2022-08-26T02:33:17.107Z,65.81
2022-08-26T02:36:25.129Z,65.34
2022-08-26T02:39:37.035Z,64.98
2022-08-26T02:42:43.865Z,64.81
2022-08-26T02:45:50.021Z,64.95
2022-08-26T02:48:56.360Z,65.13
2022-08-26T02:52:02.549Z,65.17
2022-08-26T02:55:10.779Z,64.93
2022-08-26T02:58:17.041Z,64.83
2022-08-26T03:01:28.227Z,64.57
2022-08-26T03:04:34.995Z,64.42
2022-08-26T03:07:41.424Z,64.42
2022-08-26T03:10:48.076Z,64.19
2022-08-26T03:13:55.670Z,64.55
2022-08-26T03:17:01.886Z,64.20
2022-08-26T03:20:09.902Z,64.10
2022-08-26T03:23:16.106Z,63.76
2022-08-26T03:26:23.185Z,64.13
2022-08-26T03:29:49.459Z,64.32
2022-08-26T03:32:57.269Z,64.46
2022-08-26T03:36:04.166Z,64.29
2022-08-26T03:39:13.138Z,64.06
2022-08-26T03:42:21.485Z,64.05
2022-08-26T03:45:28.200Z,64.50
2022-08-26T03:48:34.617Z,64.92
2022-08-26T03:51:41.404Z,64.58
2022-08-26T03:54:48.314Z,64.31
2022-08-26T03:57:55.030Z,64.75
2022-08-26T04:01:02.020Z,64.26
2022-08-26T04:04:08.641Z,64.02
2022-08-26T04:07:15.424Z,64.03
2022-08-26T04:10:28.707Z,63.91
2022-08-26T04:13:36.228Z,64.32
2022-08-26T04:16:42.671Z,64.61
2022-08-26T04:19:49.314Z,64.65
2022-08-26T04:22:53.770Z,64.56
2022-08-26T04:26:01.337Z,64.73
2022-08-26T04:29:09.815Z,64.62
2022-08-26T04:32:16.453Z,64.49
2022-08-26T04:35:25.696Z,64.58
2022-08-26T04:38:32.691Z,64.76
2022-08-26T04:41:40.156Z,64.88
2022-08-26T04:44:46.562Z,64.87
2022-08-26T04:47:56.513Z,65.35
2022-08-26T04:51:03.315Z,65.76
2022-08-26T04:54:11.779Z,65.84
2022-08-26T04:57:17.998Z,65.56
2022-08-26T05:00:24.986Z,65.37
2022-08-26T05:03:32.493Z,65.71
2022-08-26T05:06:38.915Z,65.89
2022-08-26T05:09:45.529Z,65.79
2022-08-26T05:12:51.680Z,65.67
2022-08-26T05:16:01.200Z,65.66
2022-08-26T05:19:08.567Z,65.93
2022-08-26T05:22:15.013Z,66.96
2022-08-26T05:25:21.390Z,67.50
2022-08-26T05:28:29.749Z,68.51
2022-08-26T05:31:36.954Z,67.71
2022-08-26T05:34:43.134Z,66.99
2022-08-26T05:37:49.404Z,67.36
2022-08-26T05:40:55.559Z,68.06
2022-08-26T05:44:03.574Z,68.45
2022-08-26T05:47:09.893Z,68.72
2022-08-26T05:50:16.130Z,68.93
2022-08-26T05:53:23.992Z,68.39
2022-08-26T05:56:32.783Z,67.69
2022-08-26T05:59:38.942Z,67.43
2022-08-26T06:02:45.104Z,67.41
2022-08-26T06:05:54.891Z,67.43
2022-08-26T06:09:02.202Z,67.14
2022-08-26T06:12:08.987Z,67.24
2022-08-26T06:15:15.746Z,67.11
2022-08-26T06:18:24.003Z,66.87
2022-08-26T06:21:34.238Z,67.09
2022-08-26T06:24:58.087Z,66.80
2022-08-26T06:28:05.563Z,67.22
2022-08-26T06:31:11.863Z,67.38
2022-08-26T06:34:18.111Z,67.61
2022-08-26T06:37:24.246Z,67.50
2022-08-26T06:40:31.279Z,67.86
2022-08-26T06:43:37.569Z,67.58
2022-08-26T06:46:44.402Z,67.18
2022-08-26T06:49:51.046Z,66.82
2022-08-26T06:52:56.980Z,66.43
2022-08-26T06:56:06.947Z,66.24
2022-08-26T06:59:15.458Z,65.58
2022-08-26T07:02:21.756Z,65.02
2022-08-26T07:05:28.083Z,63.91
2022-08-26T07:08:35.977Z,62.38
2022-08-26T07:11:42.524Z,62.01
2022-08-26T07:14:48.698Z,61.40
2022-08-26T07:17:54.865Z,61.02
2022-08-26T07:21:03.858Z,60.26
2022-08-26T07:24:11.297Z,58.82
2022-08-26T07:27:18.719Z,58.96
2022-08-26T07:30:25.972Z,59.68
2022-08-26T07:33:32.328Z,60.62
2022-08-26T07:36:39.585Z,60.93
2022-08-26T07:39:45.902Z,59.76
2022-08-26T07:42:53.074Z,58.33
2022-08-26T07:45:59.347Z,57.96
2022-08-26T07:49:05.849Z,58.10
2022-08-26T07:52:12.878Z,58.58
2022-08-26T07:55:19.634Z,58.88
2022-08-26T07:58:25.824Z,58.84
2022-08-26T08:01:32.243Z,59.38
2022-08-26T08:04:39.439Z,59.38
2022-08-26T08:07:45.887Z,59.69
2022-08-26T08:10:52.787Z,58.10
2022-08-26T08:14:01.150Z,60.22
2022-08-26T08:17:07.571Z,60.48
2022-08-26T08:20:15.719Z,60.82
2022-08-26T08:23:21.892Z,60.49
2022-08-26T08:26:30.183Z,60.29
2022-08-26T08:29:37.419Z,59.52
2022-08-26T08:32:44.533Z,59.04
2022-08-26T08:35:50.910Z,59.09
2022-08-26T08:38:57.073Z,59.96
2022-08-26T08:42:31.359Z,58.35
2022-08-26T08:45:41.034Z,58.66
2022-08-26T08:48:52.788Z,58.33
2022-08-26T08:52:06.746Z,58.60
2022-08-26T08:55:18.014Z,59.80
2022-08-26T08:58:29.085Z,58.79
2022-08-26T09:01:48.221Z,57.47
2022-08-26T09:05:14.914Z,57.30
2022-08-26T09:08:28.616Z,58.50
2022-08-26T09:11:36.397Z,57.06
2022-08-26T09:14:51.119Z,56.98
2022-08-26T09:18:06.633Z,56.37
2022-08-26T09:21:17.916Z,55.39
2022-08-26T09:24:24.218Z,54.46
2022-08-26T09:27:44.614Z,52.44
2022-08-26T09:31:03.509Z,52.76
2022-08-26T09:34:19.379Z,53.03
2022-08-26T09:37:41.728Z,52.51
2022-08-26T09:40:59.437Z,51.72
2022-08-26T09:44:28.494Z,52.11
2022-08-26T09:47:39.350Z,51.22
2022-08-26T09:50:57.055Z,51.72
2022-08-26T09:54:05.770Z,50.97
2022-08-26T09:57:21.044Z,49.62
2022-08-26T10:00:34.831Z,50.36
2022-08-26T10:03:45.351Z,50.03
2022-08-26T10:07:00.881Z,50.47
2022-08-26T10:10:12.094Z,50.43
2022-08-26T10:13:24.459Z,50.74
2022-08-26T10:16:36.187Z,50.91
2022-08-26T10:19:56.868Z,49.82
2022-08-26T10:23:06.594Z,49.70
2022-08-26T10:26:17.899Z,49.76
2022-08-26T10:29:30.976Z,48.89
2022-08-26T10:32:42.351Z,48.89
2022-08-26T10:35:53.214Z,47.95
2022-08-26T10:39:04.854Z,47.68
2022-08-26T10:42:16.235Z,48.27
2022-08-26T10:45:25.660Z,47.77
2022-08-26T10:48:43.021Z,48.78
2022-08-26T10:51:58.075Z,47.67
2022-08-26T10:55:10.423Z,47.20
2022-08-26T10:58:37.920Z,47.21
2022-08-26T11:01:52.589Z,45.97
2022-08-26T11:05:03.122Z,45.03
2022-08-26T11:08:32.863Z,46.33
2022-08-26T11:11:48.982Z,45.21
2022-08-26T11:14:58.714Z,45.06
2022-08-26T11:18:08.131Z,44.13
2022-08-26T11:21:49.560Z,44.17
2022-08-26T11:25:16.399Z,43.41
2022-08-26T11:28:37.542Z,44.09
2022-08-26T11:31:58.723Z,41.67
2022-08-26T11:35:08.306Z,39.76
2022-08-26T11:38:23.220Z,39.21
2022-08-26T11:41:31.463Z,39.36
2022-08-26T11:44:49.073Z,40.06
2022-08-26T11:47:55.946Z,37.95
2022-08-26T11:51:05.149Z,37.57
2022-08-26T11:54:17.702Z,38.85
2022-08-26T11:57:43.562Z,37.56
2022-08-26T12:00:58.497Z,37.40
2022-08-26T12:04:07.615Z,38.17
2022-08-26T12:07:13.723Z,35.86
2022-08-26T12:10:30.770Z,37.22
2022-08-26T12:13:39.255Z,36.08
2022-08-26T12:16:45.701Z,36.73
2022-08-26T12:19:52.098Z,36.82
2022-08-26T12:22:59.275Z,36.14
2022-08-26T12:26:14.730Z,36.12
2022-08-26T12:29:29.259Z,35.43
2022-08-26T12:32:36.396Z,34.76
2022-08-26T12:35:43.354Z,35.23
2022-08-26T12:38:50.126Z,35.98
2022-08-26T12:41:58.115Z,36.02
2022-08-26T12:45:07.025Z,35.58
2022-08-26T12:48:14.997Z,35.07
2022-08-26T12:51:25.985Z,35.27
2022-08-26T12:54:46.162Z,35.34
2022-08-26T12:58:10.958Z,35.40
2022-08-26T13:01:24.558Z,35.41
2022-08-26T13:04:39.501Z,36.63
2022-08-26T13:07:44.030Z,36.43
2022-08-26T13:11:03.153Z,36.85
2022-08-26T13:14:15.870Z,36.21
2022-08-26T13:17:31.204Z,35.86
2022-08-26T13:20:44.290Z,35.91
2022-08-26T13:23:51.584Z,36.89
2022-08-26T13:26:57.826Z,35.89
2022-08-26T13:30:04.061Z,35.21
2022-08-26T13:33:12.264Z,35.15
2022-08-26T13:36:20.931Z,34.90
2022-08-26T13:39:27.770Z,35.77
2022-08-26T13:42:34.371Z,36.04
2022-08-26T13:45:41.096Z,36.14
2022-08-26T13:48:47.362Z,35.41
2022-08-26T13:51:53.441Z,35.41
2022-08-26T13:55:00.184Z,35.65
2022-08-26T13:58:06.695Z,35.48
2022-08-26T14:01:13.390Z,34.89
2022-08-26T14:04:22.453Z,35.77
2022-08-26T14:07:33.741Z,34.82
2022-08-26T14:10:40.019Z,35.80
2022-08-26T14:13:46.312Z,35.05
2022-08-26T14:17:00.091Z,34.92
2022-08-26T14:20:09.339Z,34.30
2022-08-26T14:23:16.164Z,34.87
2022-08-26T14:26:29.134Z,35.34
2022-08-26T14:29:36.031Z,35.54
2022-08-26T14:32:46.007Z,34.39
2022-08-26T14:35:52.245Z,35.08
2022-08-26T14:39:00.905Z,36.08
2022-08-26T14:42:09.169Z,36.59
2022-08-26T14:45:19.585Z,36.35
2022-08-26T14:48:25.720Z,37.29
2022-08-26T14:51:32.049Z,36.97
2022-08-26T14:54:38.927Z,36.81
2022-08-26T14:57:45.681Z,36.54
2022-08-26T15:00:51.932Z,36.45
2022-08-26T15:03:58.261Z,35.39
2022-08-26T15:07:05.266Z,36.20
2022-08-26T15:10:14.094Z,36.83
2022-08-26T15:13:20.326Z,36.65
2022-08-26T15:16:27.419Z,36.41
2022-08-26T15:19:33.773Z,35.90
2022-08-26T15:22:43.383Z,36.33
2022-08-26T15:25:49.560Z,36.45
2022-08-26T15:28:55.798Z,36.90
2022-08-26T15:32:01.994Z,36.61
2022-08-26T15:35:09.910Z,37.24
2022-08-26T15:38:16.120Z,36.20
2022-08-26T15:41:22.341Z,36.61
2022-08-26T15:44:28.806Z,36.98
2022-08-26T15:47:35.480Z,36.88
2022-08-26T15:51:02.668Z,37.66
2022-08-26T15:54:10.360Z,37.06
2022-08-26T15:57:19.123Z,37.20
2022-08-26T16:00:27.263Z,36.89
2022-08-26T16:03:33.541Z,37.23
2022-08-26T16:06:41.222Z,37.36
2022-08-26T16:09:49.197Z,37.86
2022-08-26T16:13:00.406Z,38.35
2022-08-26T16:16:07.197Z,38.45
2022-08-26T16:19:13.752Z,38.44
2022-08-26T16:22:20.054Z,39.26
2022-08-26T16:25:29.181Z,38.99
2022-08-26T16:28:35.386Z,39.23
2022-08-26T16:31:42.272Z,40.90
2022-08-26T16:34:56.187Z,39.99
2022-08-26T16:38:03.194Z,40.09
2022-08-26T16:41:10.460Z,39.98
2022-08-26T16:44:16.804Z,40.13
2022-08-26T16:47:23.329Z,40.46
2022-08-26T16:50:30.258Z,41.29
2022-08-26T16:53:36.301Z,43.37
2022-08-26T16:56:42.580Z,42.61
2022-08-26T16:59:48.728Z,46.71
2022-08-26T17:02:55.137Z,48.09
2022-08-26T17:06:01.550Z,48.80
2022-08-26T17:09:07.909Z,49.48
2022-08-26T17:12:14.159Z,50.38
2022-08-26T17:15:22.250Z,49.63
2022-08-26T17:18:30.721Z,47.80
2022-08-26T17:21:38.224Z,47.86
2022-08-26T17:24:44.822Z,49.11
2022-08-26T17:27:51.063Z,49.00
2022-08-26T17:30:59.385Z,52.11
2022-08-26T17:34:06.203Z,54.02
2022-08-26T17:37:12.411Z,55.57
2022-08-26T17:40:21.677Z,55.79
2022-08-26T17:43:28.228Z,55.84
2022-08-26T17:46:38.155Z,55.31
2022-08-26T17:49:44.526Z,55.52
2022-08-26T17:52:50.756Z,55.76
2022-08-26T17:55:57.223Z,56.93
2022-08-26T17:59:04.176Z,58.33
2022-08-26T18:02:10.866Z,58.52
2022-08-26T18:05:18.237Z,59.02
2022-08-26T18:08:24.774Z,59.28
2022-08-26T18:11:32.137Z,59.48
2022-08-26T18:14:38.462Z,59.81
2022-08-26T18:17:45.263Z,59.95
2022-08-26T18:20:51.879Z,60.57
2022-08-26T18:24:13.350Z,60.85
2022-08-26T18:27:20.266Z,60.90
2022-08-26T18:30:26.635Z,61.22
2022-08-26T18:33:32.865Z,61.68
2022-08-26T18:36:40.206Z,61.94
2022-08-26T18:39:46.281Z,63.34
2022-08-26T18:42:53.971Z,63.60
2022-08-26T18:46:06.863Z,62.46
2022-08-26T18:49:14.418Z,60.75
2022-08-26T18:52:20.604Z,60.49
2022-08-26T18:55:27.525Z,61.02
2022-08-26T18:58:33.626Z,61.52
2022-08-26T19:01:41.421Z,61.93
2022-08-26T19:04:47.614Z,63.33
2022-08-26T19:07:53.766Z,63.73
2022-08-26T19:11:00.859Z,62.56
2022-08-26T19:14:08.346Z,61.68
2022-08-26T19:17:14.576Z,60.28
2022-08-26T19:20:21.022Z,60.20
2022-08-26T19:23:32.089Z,61.16
2022-08-26T19:26:39.175Z,61.88
2022-08-26T19:29:46.911Z,63.37
2022-08-26T19:32:53.144Z,63.70
2022-08-26T19:35:59.298Z,62.57
2022-08-26T19:39:06.405Z,61.70
2022-08-26T19:42:14.137Z,60.95
2022-08-26T19:45:25.367Z,59.68
2022-08-26T19:48:31.958Z,59.76
2022-08-26T19:51:38.382Z,60.53
2022-08-26T19:54:44.563Z,61.38
2022-08-26T19:57:52.482Z,62.07
2022-08-26T20:00:58.603Z,63.76
2022-08-26T20:04:05.257Z,64.31
2022-08-26T20:07:15.293Z,63.31
2022-08-26T20:10:25.829Z,62.89
2022-08-26T20:13:32.324Z,62.34
2022-08-26T20:16:38.690Z,61.75
2022-08-26T20:20:02.593Z,61.30
2022-08-26T20:23:08.820Z,60.11
2022-08-26T20:26:15.117Z,60.32
2022-08-26T20:29:22.465Z,61.47
2022-08-26T20:32:31.588Z,63.16
2022-08-26T20:35:41.290Z,63.60
2022-08-26T20:38:47.530Z,62.78
2022-08-26T20:41:53.701Z,62.13
2022-08-26T20:44:59.969Z,61.63
2022-08-26T20:48:06.606Z,61.27
2022-08-26T20:51:13.208Z,61.01
2022-08-26T20:54:22.979Z,60.02
2022-08-26T20:57:31.551Z,60.24
2022-08-26T21:00:38.613Z,61.13
2022-08-26T21:03:45.003Z,63.19
2022-08-26T21:06:53.151Z,63.66
2022-08-26T21:09:59.731Z,62.83
2022-08-26T21:13:06.242Z,62.16
2022-08-26T21:16:12.770Z,61.62
2022-08-26T21:19:20.113Z,61.44
2022-08-26T21:22:26.657Z,61.00
2022-08-26T21:25:32.893Z,61.04
2022-08-26T21:28:40.253Z,60.70
2022-08-26T21:31:47.054Z,59.89
2022-08-26T21:34:57.981Z,60.22
2022-08-26T21:38:04.429Z,61.16
2022-08-26T21:41:13.293Z,62.08
2022-08-26T21:44:20.845Z,64.10
2022-08-26T21:47:27.357Z,64.39
2022-08-26T21:50:33.577Z,63.59
2022-08-26T21:53:40.113Z,63.03
2022-08-26T21:56:48.278Z,62.97
2022-08-26T21:59:54.646Z,62.52
2022-08-26T22:03:00.922Z,62.22
2022-08-26T22:06:07.937Z,62.11
2022-08-26T22:09:15.729Z,61.71
2022-08-26T22:12:21.953Z,61.48
2022-08-26T22:15:28.240Z,61.50
2022-08-26T22:18:34.999Z,61.31
2022-08-26T22:21:41.237Z,61.22
2022-08-26T22:24:47.692Z,61.14
2022-08-26T22:27:53.944Z,61.39
2022-08-26T22:31:00.654Z,61.12
2022-08-26T22:34:08.033Z,61.27
2022-08-26T22:37:14.297Z,61.33
2022-08-26T22:40:20.882Z,61.30
2022-08-26T22:43:28.900Z,61.08
2022-08-26T22:46:36.914Z,61.25
2022-08-26T22:49:43.065Z,61.12
2022-08-26T22:52:49.267Z,61.02
2022-08-26T22:55:55.550Z,61.26
2022-08-26T22:59:01.815Z,61.36
2022-08-26T23:02:08.249Z,61.34
2022-08-26T23:05:18.286Z,61.45
2022-08-26T23:08:25.924Z,61.51
2022-08-26T23:11:32.138Z,61.40
2022-08-26T23:14:40.769Z,61.20
2022-08-26T23:17:47.269Z,61.20
2022-08-26T23:21:02.202Z,61.15
2022-08-26T23:24:10.079Z,61.04
2022-08-26T23:27:16.834Z,60.97
2022-08-26T23:30:26.196Z,61.09
2022-08-26T23:33:46.289Z,61.11
2022-08-26T23:36:53.841Z,60.80
2022-08-26T23:40:03.465Z,60.77
2022-08-26T23:43:12.556Z,60.67
2022-08-26T23:46:18.894Z,60.67
2022-08-26T23:49:25.485Z,60.74
2022-08-26T23:52:49.802Z,60.52
2022-08-26T23:55:56.156Z,60.63
2022-08-26T23:59:02.422Z,60.65
